Time;durP1;ratioP1;P1;durP2;ratioP2;P2;SDS_P1;SDS_P2;PMS_P1;PMS_P2;Temp;Humidity;BMP_temperature;BMP_pressure;BME280_temperature;BME280_humidity;BME280_pressure;Samples;Min_cycle;Max_cycle;Signal;HPM_P1;HPM_P2
2022/06/21 00:00:06;;;;;;;9.90;2.15;;;13.50;99.90;;;;;;5072042;28;20407;-55
2022/06/21 00:02:32;;;;;;;11.02;2.63;;;13.40;99.90;;;;;;5071050;28;20389;-55
2022/06/21 00:04:58;;;;;;;7.28;2.45;;;13.40;99.90;;;;;;5070731;28;20079;-54
2022/06/21 00:07:27;;;;;;;8.45;2.22;;;13.40;99.90;;;;;;5071831;28;20076;-55
2022/06/21 00:09:53;;;;;;;6.93;2.50;;;13.40;99.90;;;;;;5072198;28;20039;-55
2022/06/21 00:12:20;;;;;;;11.88;3.65;;;13.40;99.90;;;;;;5072034;28;20111;-52
2022/06/21 00:14:47;;;;;;;9.68;2.22;;;13.40;99.90;;;;;;5071234;28;20065;-54
2022/06/21 00:17:19;;;;;;;9.73;2.30;;;13.30;99.90;;;;;;5071971;28;20115;-54
2022/06/21 00:19:45;;;;;;;10.43;2.45;;;13.30;99.90;;;;;;5072439;28;20458;-54
2022/06/21 00:22:16;;;;;;;10.00;2.50;;;13.30;99.90;;;;;;5072160;28;20079;-55
2022/06/21 00:24:42;;;;;;;9.38;2.30;;;13.20;99.90;;;;;;5058889;28;20040;-53
2022/06/21 00:27:16;;;;;;;9.25;2.40;;;13.20;99.90;;;;;;5069679;28;20048;-55
2022/06/21 00:29:43;;;;;;;10.30;3.50;;;13.20;99.90;;;;;;5071682;28;20479;-54
2022/06/21 00:32:17;;;;;;;6.97;2.42;;;13.10;99.90;;;;;;5071065;28;20222;-54
2022/06/21 00:34:44;;;;;;;11.63;2.90;;;13.10;99.90;;;;;;5072058;28;20028;-54
2022/06/21 00:37:20;;;;;;;10.20;3.20;;;13.10;99.90;;;;;;5071834;28;20040;-54
2022/06/21 00:39:45;;;;;;;9.90;3.13;;;13.10;99.90;;;;;;5071521;28;20041;-55
2022/06/21 00:42:17;;;;;;;12.65;3.67;;;13.10;99.90;;;;;;5071985;28;20045;-54
2022/06/21 00:44:52;;;;;;;9.23;2.80;;;13.10;99.90;;;;;;5070689;28;20471;-55
2022/06/21 00:47:26;;;;;;;12.70;3.58;;;13.10;99.90;;;;;;5071640;28;20131;-55
2022/06/21 00:49:59;;;;;;;10.80;3.25;;;13.10;99.90;;;;;;5071743;28;20036;-55
2022/06/21 00:52:41;;;;;;;15.77;2.90;;;13.00;99.90;;;;;;5071985;28;20429;-56
2022/06/21 00:55:17;;;;;;;7.55;2.55;;;13.00;99.90;;;;;;5078154;28;20119;-54
2022/06/21 00:57:50;;;;;;;11.02;2.58;;;13.00;99.90;;;;;;5091849;28;20036;-54
2022/06/21 01:00:26;;;;;;;3.60;2.20;;;13.00;99.90;;;;;;5091603;28;20086;-54
2022/06/21 01:02:53;;;;;;;7.40;2.45;;;13.00;99.90;;;;;;5091512;28;20047;-54
2022/06/21 01:05:19;;;;;;;9.40;2.50;;;12.90;99.90;;;;;;5091989;28;20040;-54
2022/06/21 01:07:46;;;;;;;5.93;2.55;;;12.90;99.90;;;;;;5091568;28;20517;-55
2022/06/21 01:10:16;;;;;;;6.13;2.80;;;12.90;99.90;;;;;;5090343;28;20458;-55
2022/06/21 01:12:45;;;;;;;11.60;3.05;;;12.90;99.90;;;;;;5091663;28;20032;-55
2022/06/21 01:15:18;;;;;;;;;;;12.70;99.90;;;;;;5091028;28;20396;-55
2022/06/21 01:17:46;;;;;;;6.97;2.20;;;12.70;99.90;;;;;;5070817;28;19917;-54
2022/06/21 01:20:17;;;;;;;9.53;3.00;;;12.60;99.90;;;;;;5071472;28;20471;-54
2022/06/21 01:22:43;;;;;;;9.77;2.45;;;12.60;99.90;;;;;;5071281;28;20032;-54
2022/06/21 01:25:16;;;;;;;9.75;2.42;;;12.50;99.90;;;;;;5071237;28;20173;-53
2022/06/21 01:27:42;;;;;;;8.13;2.90;;;12.30;99.90;;;;;;5073805;28;20076;-54
2022/06/21 01:30:09;;;;;;;10.15;3.30;;;12.30;99.90;;;;;;5075380;28;20052;-55
2022/06/21 01:32:35;;;;;;;12.65;2.65;;;12.20;99.90;;;;;;5073542;28;20584;-54
2022/06/21 01:35:08;;;;;;;7.20;3.20;;;12.30;99.90;;;;;;5075274;28;20070;-54
2022/06/21 01:37:34;;;;;;;7.68;2.63;;;12.20;99.90;;;;;;5074746;28;20122;-54
2022/06/21 01:40:08;;;;;;;10.93;2.30;;;12.10;99.90;;;;;;5074815;28;20064;-54
2022/06/21 01:42:41;;;;;;;9.25;3.08;;;12.10;99.90;;;;;;5074696;28;20475;-54
2022/06/21 01:45:12;;;;;;;8.40;2.75;;;12.10;99.90;;;;;;5075117;28;20047;-54
2022/06/21 01:47:49;;;;;;;8.27;2.85;;;12.10;99.90;;;;;;5074938;28;20360;-54
2022/06/21 01:50:16;;;;;;;10.25;2.88;;;12.00;99.90;;;;;;5074835;28;20656;-55
2022/06/21 01:52:45;;;;;;;9.35;3.05;;;12.00;99.90;;;;;;5074456;28;20379;-52
2022/06/21 01:55:16;;;;;;;;;;;12.00;99.90;;;;;;5075114;28;20041;-53
2022/06/21 01:57:42;;;;;;;9.13;2.75;;;12.00;99.90;;;;;;5074618;28;20326;-54
2022/06/21 02:00:08;;;;;;;5.60;2.40;;;12.10;99.90;;;;;;5074427;28;20128;-54
2022/06/21 02:02:49;;;;;;;5.95;2.60;;;12.00;99.90;;;;;;5074438;28;20041;-53
2022/06/21 02:05:26;;;;;;;9.60;3.15;;;12.00;99.90;;;;;;5074263;28;20619;-55
2022/06/21 02:07:56;;;;;;;6.03;2.40;;;11.90;99.90;;;;;;5074279;28;20507;-54
2022/06/21 02:10:30;;;;;;;6.28;2.55;;;11.90;99.90;;;;;;5072991;28;20045;-55
2022/06/21 02:13:05;;;;;;;7.85;2.40;;;11.80;99.90;;;;;;5074807;28;20040;-54
2022/06/21 02:15:44;;;;;;;6.03;2.42;;;11.80;99.90;;;;;;5072585;28;20491;-55
2022/06/21 02:18:12;;;;;;;;;;;11.80;99.90;;;;;;5073513;28;20403;-55
2022/06/21 02:20:47;;;;;;;6.57;2.67;;;11.80;99.90;;;;;;5074572;28;20605;-54
2022/06/21 02:23:15;;;;;;;4.20;2.42;;;11.60;99.90;;;;;;5074213;28;20033;-54
2022/06/21 02:25:42;;;;;;;6.70;2.40;;;11.70;99.90;;;;;;5074009;28;20108;-55
2022/06/21 02:28:12;;;;;;;7.13;2.60;;;11.70;99.90;;;;;;5073772;28;20051;-54
2022/06/21 02:30:40;;;;;;;4.78;2.35;;;11.70;99.90;;;;;;5073936;28;20044;-55
2022/06/21 02:33:12;;;;;;;4.55;2.10;;;11.70;99.90;;;;;;5073856;28;20076;-54
2022/06/21 02:35:46;;;;;;;8.57;3.13;;;11.70;99.90;;;;;;5073555;28;20450;-54
2022/06/21 02:38:22;;;;;;;5.88;2.33;;;11.80;99.90;;;;;;5072932;28;20040;-55
2022/06/21 02:41:02;;;;;;;4.75;2.35;;;11.60;99.90;;;;;;5089124;28;20036;-52
2022/06/21 02:43:33;;;;;;;3.92;2.03;;;11.50;99.90;;;;;;5094046;28;20032;-54
2022/06/21 02:46:11;;;;;;;5.22;2.33;;;11.50;99.90;;;;;;5094141;28;20032;-54
2022/06/21 02:48:44;;;;;;;6.05;2.35;;;11.40;99.90;;;;;;5093671;28;20099;-53
2022/06/21 02:51:15;;;;;;;5.03;2.75;;;11.40;99.90;;;;;;5092381;28;20429;-55
2022/06/21 02:54:07;;;;;;;6.88;2.20;;;11.50;99.90;;;;;;5073442;28;20487;-54
2022/06/21 02:56:42;;;;;;;7.25;3.65;;;11.40;99.90;;;;;;5073209;28;20141;-55
2022/06/21 02:59:10;;;;;;;10.02;2.78;;;11.40;99.90;;;;;;5073395;28;20044;-54
2022/06/21 03:01:47;;;;;;;4.67;2.23;;;11.30;99.90;;;;;;5073377;28;20045;-55
2022/06/21 03:04:20;;;;;;;4.22;2.30;;;11.30;99.90;;;;;;5073270;28;20032;-54
2022/06/21 03:06:46;;;;;;;5.22;3.25;;;11.30;99.90;;;;;;5073113;28;20059;-55
2022/06/21 03:09:19;;;;;;;6.72;2.70;;;11.20;99.90;;;;;;5073528;28;20085;-55
2022/06/21 03:11:49;;;;;;;7.90;2.22;;;11.30;99.90;;;;;;5073475;28;20114;-54
2022/06/21 03:14:20;;;;;;;3.83;2.30;;;11.30;99.90;;;;;;5073378;28;20111;-54
2022/06/21 03:16:47;;;;;;;6.72;2.70;;;11.30;99.90;;;;;;5073123;28;20055;-54
2022/06/21 03:19:23;;;;;;;6.43;2.72;;;11.30;99.90;;;;;;5072913;28;20072;-54
2022/06/21 03:21:49;;;;;;;5.20;2.63;;;11.30;99.90;;;;;;5072970;28;20036;-53
2022/06/21 03:24:20;;;;;;;6.18;2.80;;;11.40;99.90;;;;;;5073015;28;20045;-55
2022/06/21 03:26:54;;;;;;;6.82;3.17;;;11.30;99.90;;;;;;5072403;28;20047;-55
2022/06/21 03:29:20;;;;;;;7.38;2.80;;;11.30;99.90;;;;;;5072989;28;20052;-54
2022/06/21 03:31:48;;;;;;;9.02;3.08;;;11.40;99.90;;;;;;5072769;28;20051;-55
2022/06/21 03:34:17;;;;;;;10.82;3.45;;;11.40;99.90;;;;;;5072535;28;20040;-55
2022/06/21 03:36:43;;;;;;;6.07;2.72;;;11.40;99.90;;;;;;5072526;28;20043;-55
2022/06/21 03:39:19;;;;;;;6.32;2.67;;;11.50;99.90;;;;;;5072704;28;20387;-54
2022/06/21 03:41:47;;;;;;;9.68;3.00;;;11.60;99.90;;;;;;5072625;28;20040;-55
2022/06/21 03:44:24;;;;;;;7.93;2.90;;;11.70;99.90;;;;;;5072587;28;20036;-54
2022/06/21 03:47:01;;;;;;;4.95;2.75;;;11.60;99.90;;;;;;5072357;28;20382;-55
2022/06/21 03:49:38;;;;;;;6.70;3.05;;;11.60;99.90;;;;;;5071610;28;20040;-54
2022/06/21 03:52:09;;;;;;;8.13;2.72;;;11.70;99.90;;;;;;5072507;28;20115;-54
2022/06/21 03:54:43;;;;;;;7.72;2.90;;;11.70;99.90;;;;;;5072526;28;20089;-54
2022/06/21 03:57:21;;;;;;;6.78;3.17;;;11.70;99.90;;;;;;5072652;28;20044;-54
2022/06/21 03:59:54;;;;;;;7.88;3.60;;;11.70;99.90;;;;;;5072041;28;20052;-55
2022/06/21 04:02:26;;;;;;;10.98;3.35;;;11.70;99.90;;;;;;5072328;28;20039;-54
2022/06/21 04:04:56;;;;;;;4.38;3.15;;;11.70;99.90;;;;;;5072137;28;20071;-53
2022/06/21 04:07:44;;;;;;;5.03;2.50;;;11.80;99.90;;;;;;5070999;28;20046;-54
2022/06/21 04:10:24;;;;;;;6.78;3.33;;;11.80;99.90;;;;;;5059108;28;20044;-54
2022/06/21 04:12:54;;;;;;;3.97;2.50;;;11.80;99.90;;;;;;5072048;28;20033;-55
2022/06/21 04:15:26;;;;;;;7.38;3.15;;;11.80;99.90;;;;;;5072292;28;20115;-52
2022/06/21 04:18:01;;;;;;;7.07;3.10;;;11.80;99.90;;;;;;5072139;28;20119;-54
2022/06/21 04:20:50;;;;;;;7.55;3.38;;;11.80;99.90;;;;;;5072354;28;20048;-54
2022/06/21 04:23:27;;;;;;;5.80;3.25;;;11.80;99.90;;;;;;5071677;28;20479;-54
2022/06/21 04:26:01;;;;;;;5.35;3.20;;;11.90;99.90;;;;;;5080766;28;20075;-54
2022/06/21 04:28:44;;;;;;;4.45;2.92;;;11.90;99.90;;;;;;5091110;28;20135;-53
2022/06/21 04:31:09;;;;;;;5.85;3.22;;;11.90;99.90;;;;;;5091964;28;20036;-54
2022/06/21 04:33:44;;;;;;;8.02;3.60;;;12.00;99.90;;;;;;5091677;28;20097;-53
2022/06/21 04:36:13;;;;;;;7.18;3.60;;;12.00;99.90;;;;;;5092207;28;20032;-54
2022/06/21 04:38:47;;;;;;;6.13;3.78;;;12.10;99.90;;;;;;5091666;28;20040;-54
2022/06/21 04:41:25;;;;;;;8.55;4.07;;;12.10;99.90;;;;;;5085832;28;20391;-55
2022/06/21 04:44:03;;;;;;;6.80;3.40;;;12.10;99.90;;;;;;5091109;28;20040;-55
2022/06/21 04:46:41;;;;;;;8.82;3.80;;;12.10;99.90;;;;;;5091761;28;20040;-54
2022/06/21 04:49:19;;;;;;;6.10;3.40;;;12.10;99.90;;;;;;5092134;28;20032;-54
2022/06/21 04:51:54;;;;;;;11.25;4.53;;;12.20;99.90;;;;;;5091835;28;20202;-54
2022/06/21 04:54:24;;;;;;;8.68;3.45;;;12.30;99.90;;;;;;5066129;28;20077;-54
2022/06/21 04:57:15;;;;;;;7.85;3.70;;;12.40;99.90;;;;;;5091686;28;20046;-55
2022/06/21 04:59:43;;;;;;;7.47;4.50;;;12.50;99.90;;;;;;5069946;28;20043;-54
2022/06/21 05:02:15;;;;;;;7.80;3.47;;;12.60;99.90;;;;;;5094087;28;20127;-55
2022/06/21 05:04:42;;;;;;;9.82;4.95;;;12.60;99.90;;;;;;5096185;28;20044;-55
2022/06/21 05:07:15;;;;;;;8.70;4.05;;;12.70;99.90;;;;;;5095777;28;20036;-54
2022/06/21 05:09:42;;;;;;;8.20;4.20;;;12.80;99.90;;;;;;5095960;28;20036;-55
2022/06/21 05:12:40;;;;;;;8.27;4.18;;;12.90;99.90;;;;;;5095819;28;20048;-54
2022/06/21 05:15:13;;;;;;;10.55;4.07;;;13.00;99.90;;;;;;5074188;28;20086;-55
2022/06/21 05:17:41;;;;;;;9.77;4.88;;;13.00;99.90;;;;;;5092744;28;20036;-55
2022/06/21 05:20:16;;;;;;;8.23;4.28;;;13.00;99.90;;;;;;5096046;28;20044;-55
2022/06/21 05:22:49;;;;;;;11.13;4.53;;;13.00;99.90;;;;;;5094313;28;20036;-55
2022/06/21 05:25:41;;;;;;;9.68;3.92;;;13.00;99.90;;;;;;5094515;28;20378;-54
2022/06/21 05:28:29;;;;;;;7.18;3.80;;;13.20;99.90;;;;;;5074716;28;20048;-55
2022/06/21 05:31:00;;;;;;;6.05;4.13;;;13.20;99.90;;;;;;5075024;28;20063;-54
2022/06/21 05:33:33;;;;;;;8.40;4.60;;;13.30;99.90;;;;;;5075355;28;20071;-54
2022/06/21 05:36:06;;;;;;;8.48;4.35;;;13.40;99.90;;;;;;5074959;28;20047;-54
2022/06/21 05:38:35;;;;;;;6.18;4.22;;;13.50;99.90;;;;;;5075135;28;20436;-56
2022/06/21 05:41:29;;;;;;;10.98;4.82;;;13.50;99.90;;;;;;5074872;28;20044;-54
2022/06/21 05:44:10;;;;;;;10.02;4.70;;;13.60;99.90;;;;;;5075043;28;20446;-54
2022/06/21 05:46:43;;;;;;;8.43;4.82;;;13.70;99.90;;;;;;5074953;28;20041;-55
2022/06/21 05:49:19;;;;;;;8.18;5.05;;;13.80;99.90;;;;;;5074831;28;20033;-54
2022/06/21 05:51:45;;;;;;;7.65;4.78;;;14.00;99.90;;;;;;5074989;28;20037;-55
2022/06/21 05:54:16;;;;;;;9.88;4.43;;;14.10;99.90;;;;;;5074581;28;20039;-55
2022/06/21 05:56:42;;;;;;;6.20;4.60;;;14.20;99.90;;;;;;5057027;28;20129;-54
2022/06/21 05:59:12;;;;;;;11.10;6.32;;;14.30;99.90;;;;;;5074657;28;20034;-54
2022/06/21 06:02:02;;;;;;;7.72;5.45;;;14.40;99.90;;;;;;5074879;28;20043;-54
2022/06/21 06:04:39;;;;;;;8.52;5.50;;;14.50;99.90;;;;;;5074454;28;20036;-54
2022/06/21 06:07:07;;;;;;;6.97;4.90;;;14.60;99.90;;;;;;5081871;28;20133;-54
2022/06/21 06:09:42;;;;;;;8.63;5.63;;;14.70;99.90;;;;;;5093672;28;20119;-55
2022/06/21 06:12:20;;;;;;;10.95;6.47;;;14.80;99.90;;;;;;5076428;28;20072;-55
2022/06/21 06:14:48;;;;;;;5.60;3.92;;;15.00;99.90;;;;;;5088278;28;20409;-55
2022/06/21 06:17:33;;;;;;;9.17;4.40;;;15.10;99.90;;;;;;5095041;28;20044;-56
2022/06/21 06:20:27;;;;;;;11.52;3.60;;;15.30;99.90;;;;;;5094639;28;20032;-55
2022/06/21 06:23:28;;;;;;;8.48;2.50;;;15.40;99.90;;;;;;5073244;28;20036;-55
2022/06/21 06:26:12;;;;;;;10.13;2.80;;;15.40;99.90;;;;;;5088191;28;20491;-55
2022/06/21 06:28:46;;;;;;;11.32;2.30;;;15.40;99.90;;;;;;5073630;28;20132;-55
2022/06/21 06:31:20;;;;;;;3.72;2.22;;;15.40;99.90;;;;;;5074008;28;20044;-55
2022/06/21 06:33:52;;;;;;;6.70;2.03;;;15.50;99.90;;;;;;5072947;28;20044;-55
2022/06/21 06:36:21;;;;;;;6.72;2.22;;;15.40;99.90;;;;;;5074380;28;20145;-53
2022/06/21 06:38:46;;;;;;;;;;;15.40;99.90;;;;;;5074155;28;20040;-55
2022/06/21 06:41:20;;;;;;;8.70;1.80;;;15.40;99.90;;;;;;5073165;28;20409;-55
2022/06/21 06:43:46;;;;;;;6.13;2.03;;;15.40;99.90;;;;;;5073733;28;20045;-54
2022/06/21 06:46:43;;;;;;;6.68;1.70;;;15.50;99.90;;;;;;5073375;28;20045;-55
2022/06/21 06:49:19;;;;;;;5.22;1.80;;;15.50;99.90;;;;;;5073176;28;20056;-54
2022/06/21 06:51:55;;;;;;;4.78;2.33;;;15.60;99.90;;;;;;5074018;28;20072;-54
2022/06/21 06:54:30;;;;;;;10.00;1.98;;;15.90;99.90;;;;;;5072959;28;20118;-54
2022/06/21 06:57:04;;;;;;;10.27;2.28;;;15.90;99.90;;;;;;5073185;28;20048;-54
2022/06/21 06:59:30;;;;;;;9.55;2.38;;;16.20;99.90;;;;;;5073312;28;20085;-54
2022/06/21 07:02:14;;;;;;;16.60;3.40;;;16.50;99.90;;;;;;5072239;28;20520;-55
2022/06/21 07:04:43;;;;;;;5.80;2.42;;;16.50;99.90;;;;;;5073490;28;20033;-55
2022/06/21 07:07:22;;;;;;;5.93;2.22;;;16.50;99.90;;;;;;5073715;28;20041;-55
2022/06/21 07:09:52;;;;;;;5.72;2.33;;;16.60;99.90;;;;;;5072521;28;20111;-54
2022/06/21 07:12:27;;;;;;;9.68;2.60;;;16.40;99.90;;;;;;5073621;28;20094;-54
2022/06/21 07:14:54;;;;;;;6.65;2.40;;;16.60;99.90;;;;;;5073288;28;20035;-55
2022/06/21 07:17:51;;;;;;;9.20;2.95;;;16.70;99.90;;;;;;5073584;28;20047;-54
2022/06/21 07:20:21;;;;;;;10.70;2.15;;;17.00;99.90;;;;;;5072927;28;20466;-54
2022/06/21 07:22:47;;;;;;;5.85;2.35;;;17.40;99.90;;;;;;5073281;28;20040;-54
2022/06/21 07:25:36;;;;;;;8.82;2.60;;;17.70;99.90;;;;;;5072997;28;20046;-55
2022/06/21 07:28:21;;;;;;;7.57;2.47;;;17.80;99.90;;;;;;5073028;28;20513;-55
2022/06/21 07:30:51;;;;;;;9.10;2.50;;;18.10;99.90;;;;;;5073274;28;20044;-55
2022/06/21 07:33:22;;;;;;;9.07;2.28;;;18.30;99.90;;;;;;5073107;28;20106;-55
2022/06/21 07:35:52;;;;;;;7.50;2.15;;;18.50;99.90;;;;;;5072779;28;20475;-54
2022/06/21 07:38:48;;;;;;;20.55;2.63;;;18.60;99.90;;;;;;5072176;28;20044;-55
2022/06/21 07:41:29;;;;;;;6.40;2.10;;;18.80;99.90;;;;;;5059745;28;20054;-54
2022/06/21 07:43:59;;;;;;;6.32;1.95;;;18.80;99.90;;;;;;5072717;28;20036;-54
2022/06/21 07:46:38;;;;;;;7.80;2.20;;;18.60;99.90;;;;;;5072700;28;20139;-55
2022/06/21 07:49:29;;;;;;;5.50;1.73;;;18.50;99.90;;;;;;5072532;28;20074;-55
2022/06/21 07:52:00;;;;;;;6.05;2.67;;;18.50;99.90;;;;;;5072213;28;20116;-56
2022/06/21 07:54:37;;;;;;;8.30;2.30;;;18.80;99.90;;;;;;5071924;28;20025;-56
2022/06/21 07:57:10;;;;;;;4.50;2.08;;;19.40;99.90;;;;;;5071974;28;20055;-58
2022/06/21 07:59:38;;;;;;;4.72;2.10;;;20.30;99.90;;;;;;5091185;28;20039;-57
2022/06/21 08:07:46;;;;;;;4.57;1.60;;;19.60;99.90;;;;;;5092115;28;19920;-56
2022/06/21 08:10:24;;;;;;;8.45;2.22;;;19.40;99.90;;;;;;5092003;28;20375;-56
2022/06/21 08:12:50;;;;;;;6.05;1.77;;;19.90;99.90;;;;;;5091964;28;20498;-56
2022/06/21 08:15:17;;;;;;;6.53;1.85;;;20.70;99.90;;;;;;5092310;28;20079;-56
2022/06/21 08:17:59;;;;;;;10.15;1.95;;;20.80;99.90;;;;;;5091940;28;20032;-56
2022/06/21 08:20:36;;;;;;;10.18;2.05;;;21.60;99.90;;;;;;5092088;28;20040;-56
2022/06/21 08:23:23;;;;;;;7.15;2.08;;;22.30;99.90;;;;;;5077630;28;20412;-57
2022/06/21 08:26:01;;;;;;;6.03;2.50;;;22.50;99.90;;;;;;5086147;28;20040;-56
2022/06/21 08:28:53;;;;;;;7.43;2.20;;;22.30;99.90;;;;;;5069611;28;20102;-56
2022/06/21 08:31:32;;;;;;;6.72;2.30;;;21.30;99.90;;;;;;5060603;28;20044;-57
2022/06/21 08:34:30;;;;;;;8.60;2.95;;;21.50;99.90;;;;;;5071451;28;20047;-57
2022/06/21 08:37:00;;;;;;;9.50;2.30;;;22.20;99.90;;;;;;5070695;28;20499;-57
2022/06/21 08:39:41;;;;;;;8.93;2.10;;;22.60;99.90;;;;;;5071556;28;20040;-56
2022/06/21 08:42:26;;;;;;;7.07;3.15;;;23.50;99.90;;;;;;5071701;28;20049;-56
2022/06/21 08:48:09;;;;;;;7.18;2.38;;;23.80;99.90;;;;;;5071277;28;20463;-56
2022/06/21 08:51:04;;;;;;;3.95;2.38;;;23.80;99.90;;;;;;5071375;28;20039;-57
2022/06/21 08:53:56;;;;;;;4.43;1.90;;;23.40;99.90;;;;;;5070451;28;20554;-56
2022/06/21 08:56:30;;;;;;;3.65;1.73;;;23.80;99.90;;;;;;5055575;28;20121;-56
2022/06/21 08:59:01;;;;;;;7.68;2.30;;;23.90;99.90;;;;;;5071661;28;20060;-56
2022/06/21 09:01:48;;;;;;;7.70;2.70;;;23.50;99.90;;;;;;5071071;28;20513;-56
2022/06/21 09:04:48;;;;;;;2.47;1.48;;;24.10;99.90;;;;;;5071274;28;20041;-56
2022/06/21 09:07:46;;;;;;;4.90;1.92;;;24.40;99.90;;;;;;5061724;28;20045;-56
2022/06/21 09:10:15;;;;;;;6.78;2.20;;;24.40;99.90;;;;;;5048777;28;20045;-57
2022/06/21 09:12:40;;;;;;;;;;;23.90;99.90;;;;;;5049262;28;20049;-57
2022/06/21 09:15:17;;;;;;;5.53;1.80;;;24.60;99.70;;;;;;5031779;28;20015;-57
2022/06/21 09:17:57;;;;;;;4.40;1.70;;;25.10;99.90;;;;;;5048940;28;20091;-58
2022/06/21 09:20:33;;;;;;;4.28;1.75;;;25.60;99.90;;;;;;5048754;28;20138;-58
2022/06/21 09:23:39;;;;;;;4.85;1.52;;;25.10;99.10;;;;;;5048658;28;20044;-58
2022/06/21 09:26:14;;;;;;;4.65;2.17;;;25.70;99.10;;;;;;5065089;28;20410;-56
2022/06/21 09:28:44;;;;;;;4.32;1.75;;;25.10;99.90;;;;;;5048672;28;20049;-58
2022/06/21 09:31:18;;;;;;;3.97;1.60;;;24.70;99.90;;;;;;5048780;28;20044;-57
2022/06/21 09:33:54;;;;;;;5.38;1.92;;;25.00;99.90;;;;;;5048654;28;20041;-57
2022/06/21 09:36:35;;;;;;;5.82;2.20;;;24.90;99.80;;;;;;5048683;28;20037;-57
2022/06/21 09:39:13;;;;;;;4.20;1.70;;;24.50;99.80;;;;;;5048581;28;20049;-57
2022/06/21 09:42:00;;;;;;;6.35;2.00;;;23.80;99.90;;;;;;5048967;28;20478;-57
2022/06/21 09:44:47;;;;;;;5.90;1.77;;;23.90;99.90;;;;;;5048779;28;20135;-57
2022/06/21 09:47:28;;;;;;;5.50;2.00;;;25.40;99.60;;;;;;5069184;28;20394;-57
2022/06/21 09:50:03;;;;;;;6.97;1.90;;;25.50;98.30;;;;;;5094586;28;20486;-57
2022/06/21 09:52:43;;;;;;;5.35;1.80;;;25.30;99.30;;;;;;5094920;28;20040;-57
2022/06/21 09:55:31;;;;;;;4.55;2.08;;;25.40;99.90;;;;;;5094448;28;20067;-57
2022/06/21 09:58:07;;;;;;;5.85;2.10;;;25.00;99.90;;;;;;5094477;28;20040;-57
2022/06/21 10:00:48;;;;;;;5.05;1.80;;;24.70;99.30;;;;;;5094612;28;20490;-56
2022/06/21 10:03:36;;;;;;;8.40;1.83;;;25.70;99.20;;;;;;5070167;28;20509;-57
2022/06/21 10:06:07;;;;;;;5.57;2.17;;;26.50;99.50;;;;;;5094320;28;20105;-56
2022/06/21 10:09:07;;;;;;;8.55;2.15;;;26.80;98.10;;;;;;5094156;28;20044;-57
2022/06/21 10:12:17;;;;;;;4.40;1.75;;;27.50;98.60;;;;;;5066906;28;20032;-58
2022/06/21 10:15:06;;;;;;;5.32;1.88;;;28.70;97.10;;;;;;5071619;28;20036;-58
2022/06/21 10:17:37;;;;;;;6.45;1.52;;;28.20;97.30;;;;;;5071692;28;20372;-58
2022/06/21 10:20:30;;;;;;;4.57;1.33;;;27.50;97.30;;;;;;5071668;28;20134;-58
2022/06/21 10:23:17;;;;;;;3.83;1.27;;;27.50;97.20;;;;;;5071761;28;20056;-58
2022/06/21 10:25:55;;;;;;;4.18;1.50;;;27.90;97.20;;;;;;5066713;28;20068;-57
2022/06/21 10:28:47;;;;;;;3.33;1.23;;;27.80;95.70;;;;;;5051324;28;20063;-57
2022/06/21 10:31:39;;;;;;;3.25;1.48;;;28.20;96.60;;;;;;5011520;28;20124;-57
2022/06/21 10:34:29;;;;;;;6.20;1.23;;;27.90;95.70;;;;;;5011669;28;20076;-56
2022/06/21 10:37:14;;;;;;;5.55;1.20;;;28.50;95.50;;;;;;5011676;28;20600;-57
2022/06/21 10:39:55;;;;;;;4.32;1.52;;;27.90;95.10;;;;;;5011478;28;20415;-57
2022/06/21 10:42:47;;;;;;;2.50;1.25;;;28.00;96.00;;;;;;5011425;28;20136;-58
2022/06/21 10:45:41;;;;;;;5.78;1.63;;;27.90;94.90;;;;;;5011391;28;20132;-58
2022/06/21 10:48:27;;;;;;;3.17;1.20;;;28.60;95.90;;;;;;5011410;28;20057;-57
2022/06/21 10:51:29;;;;;;;5.30;1.27;;;28.80;95.20;;;;;;5013142;28;20053;-57
2022/06/21 10:54:13;;;;;;;3.88;1.10;;;27.90;95.20;;;;;;5031073;28;20144;-57
2022/06/21 10:57:09;;;;;;;2.97;1.08;;;27.50;95.20;;;;;;5018756;28;20040;-57
2022/06/21 11:02:58;;;;;;;5.30;1.27;;;27.80;95.80;;;;;;5030891;28;20042;-57
2022/06/21 11:05:39;;;;;;;3.22;1.30;;;27.90;94.30;;;;;;5020762;28;20045;-58
2022/06/21 11:08:43;;;;;;;2.92;1.00;;;28.70;94.60;;;;;;5052272;28;20061;-58
2022/06/21 11:11:14;;;;;;;3.03;1.20;;;28.80;94.50;;;;;;5069392;28;20391;-57
2022/06/21 11:14:06;;;;;;;3.83;1.85;;;28.60;95.10;;;;;;5073355;28;20040;-57
2022/06/21 11:16:46;;;;;;;5.55;1.65;;;28.30;93.40;;;;;;5072761;28;20041;-58
2022/06/21 11:19:40;;;;;;;3.75;1.50;;;28.00;95.30;;;;;;5072680;28;20036;-58
2022/06/21 11:22:44;;;;;;;4.82;1.33;;;28.10;94.90;;;;;;5058867;28;20085;-58
2022/06/21 11:25:27;;;;;;;2.80;1.20;;;27.90;95.30;;;;;;5072372;28;20048;-57
2022/06/21 11:28:11;;;;;;;7.20;1.30;;;27.70;95.00;;;;;;5072355;28;20067;-58
2022/06/21 11:31:08;;;;;;;4.65;1.70;;;27.30;96.20;;;;;;5072611;28;20040;-58
2022/06/21 11:34:00;;;;;;;3.15;1.15;;;27.20;96.60;;;;;;5072559;28;20033;-57
2022/06/21 11:36:34;;;;;;;2.40;0.90;;;26.90;95.30;;;;;;5061774;28;20143;-57
2022/06/21 11:39:35;;;;;;;3.88;1.05;;;27.50;95.20;;;;;;5072139;28;20488;-58
2022/06/21 11:42:12;;;;;;;3.25;1.27;;;27.40;94.90;;;;;;5071285;28;20888;-57
2022/06/21 11:44:56;;;;;;;2.33;0.82;;;27.40;95.20;;;;;;5072734;28;20486;-57
2022/06/21 11:47:53;;;;;;;3.55;1.33;;;27.40;94.90;;;;;;5092220;28;20062;-59
2022/06/21 11:50:52;;;;;;;2.95;1.30;;;28.00;95.30;;;;;;5083144;28;20122;-58
2022/06/21 11:53:32;;;;;;;6.85;1.55;;;27.90;95.00;;;;;;5092112;28;20486;-58
2022/06/21 11:56:10;;;;;;;3.13;1.30;;;28.30;94.90;;;;;;5092384;28;20059;-58
2022/06/21 11:58:42;;;;;;;2.22;0.80;;;28.10;93.50;;;;;;5090868;28;20040;-60
2022/06/21 12:01:32;;;;;;;2.53;0.98;;;28.30;93.10;;;;;;5092110;28;20405;-59
2022/06/21 12:03:57;;;;;;;;;;;28.70;94.00;;;;;;5070077;28;20045;-57
2022/06/21 12:06:48;;;;;;;2.63;1.00;;;28.50;94.10;;;;;;5069615;28;19923;-58
2022/06/21 12:09:35;;;;;;;3.97;1.20;;;28.30;94.30;;;;;;5069673;28;20052;-57
2022/06/21 12:12:35;;;;;;;4.85;1.30;;;28.50;94.70;;;;;;5068610;28;20044;-58
2022/06/21 12:15:26;;;;;;;1.70;0.70;;;28.70;94.30;;;;;;5069373;28;20040;-58
2022/06/21 12:18:09;;;;;;;2.30;0.90;;;28.70;94.60;;;;;;5069584;28;20070;-58
2022/06/21 12:20:34;;;;;;;4.25;1.13;;;28.90;94.70;;;;;;5069129;28;20096;-58
2022/06/21 12:23:12;;;;;;;5.43;1.10;;;28.40;93.90;;;;;;5069412;28;20119;-58
2022/06/21 12:25:38;;;;;;;2.28;0.90;;;28.30;93.00;;;;;;5048524;28;20047;-58
2022/06/21 12:28:15;;;;;;;2.03;0.77;;;28.40;93.00;;;;;;5049076;28;20124;-58
2022/06/21 12:30:41;;;;;;;3.28;1.45;;;28.60;92.70;;;;;;5049507;28;20037;-58
2022/06/21 12:33:13;;;;;;;4.95;1.20;;;28.60;93.20;;;;;;5049438;28;20526;-58
2022/06/21 12:35:47;;;;;;;3.03;0.95;;;28.90;93.30;;;;;;5049125;28;20080;-57
2022/06/21 12:38:18;;;;;;;3.50;1.08;;;28.50;93.90;;;;;;5049309;28;20530;-57
2022/06/21 12:40:54;;;;;;;2.55;0.95;;;28.40;93.60;;;;;;5038739;28;20041;-57
2022/06/21 12:43:43;;;;;;;2.35;1.10;;;28.20;93.10;;;;;;5070194;28;20032;-57
2022/06/21 12:46:30;;;;;;;;;;;28.00;93.40;;;;;;5070926;28;20059;-57
2022/06/21 12:49:33;;;;;;;3.33;0.98;;;27.70;93.70;;;;;;5070162;28;19930;-57
2022/06/21 12:52:11;;;;;;;2.38;1.00;;;27.90;94.20;;;;;;5062663;28;20040;-57
2022/06/21 12:54:45;;;;;;;2.10;0.88;;;28.00;94.40;;;;;;5071324;28;20414;-58
2022/06/21 12:57:32;;;;;;;5.47;1.50;;;27.90;93.30;;;;;;5071388;28;20036;-58
2022/06/21 13:00:14;;;;;;;3.78;1.50;;;28.00;93.20;;;;;;5071507;28;20487;-58
2022/06/21 13:03:02;;;;;;;2.80;1.20;;;28.10;93.60;;;;;;5071421;28;20086;-57
2022/06/21 13:06:00;;;;;;;4.40;1.00;;;28.30;93.40;;;;;;5063072;28;20041;-58
2022/06/21 13:08:47;;;;;;;2.63;1.08;;;28.40;94.10;;;;;;5066057;28;20040;-57
2022/06/21 13:11:30;;;;;;;4.15;1.33;;;28.30;93.30;;;;;;5065274;28;20045;-57
2022/06/21 13:14:24;;;;;;;3.67;1.15;;;28.40;93.20;;;;;;5071072;28;20044;-57
2022/06/21 13:16:55;;;;;;;3.90;1.10;;;28.60;93.70;;;;;;5071108;28;20033;-57
2022/06/21 13:19:56;;;;;;;6.65;1.60;;;28.80;94.30;;;;;;5070961;28;20123;-59
2022/06/21 13:22:31;;;;;;;2.88;1.40;;;28.70;93.40;;;;;;5071407;28;20175;-58
2022/06/21 13:25:35;;;;;;;4.10;1.42;;;28.20;92.80;;;;;;5067097;28;20036;-55
2022/06/21 13:28:31;;;;;;;3.63;1.38;;;28.40;93.50;;;;;;5062590;28;20525;-54
2022/06/21 13:31:04;;;;;;;3.60;1.35;;;27.90;93.30;;;;;;5072990;28;20041;-56
2022/06/21 13:33:37;;;;;;;5.40;1.30;;;27.70;94.20;;;;;;5071665;28;20044;-54
2022/06/21 13:36:12;;;;;;;3.20;1.40;;;27.70;95.00;;;;;;5052024;28;20037;-54
2022/06/21 13:39:10;;;;;;;3.72;1.40;;;27.40;94.10;;;;;;5035109;28;20132;-54
2022/06/21 13:44:51;;;;;;;4.93;1.50;;;27.00;93.80;;;;;;4972252;28;20089;-53
2022/06/21 13:47:23;;;;;;;2.75;1.30;;;26.90;93.50;;;;;;4968288;28;20051;-53
2022/06/21 13:49:57;;;;;;;4.05;1.38;;;26.70;95.00;;;;;;4972244;28;20075;-53
2022/06/21 13:52:35;;;;;;;3.25;1.20;;;26.40;95.10;;;;;;4970477;28;20053;-54
2022/06/21 13:55:21;;;;;;;6.00;1.50;;;26.30;94.30;;;;;;4972297;28;20038;-54